CheckWX is a tool to help pilots better visualize weather data.  It is not intended as a substitute for an official pre-flight weather briefing.

07:29:56 UTC

KSGT METAR
Stuttgart Municipal Carl Humphrey Field Airport
Stuttgart, Arkansas, USA
Current

34 mins ago

KSGT 200656Z AUTO 23008KT 10SM FEW085 22/19 A2974 RMK AO2 SLP070 T02170194
Observed
Jun-20 @ 06:56 UTC
Wind
  • 230° at 8 KTS
Visibility
10 SM
Flight Rules
VFR
Cloud Levels
  • Few at 8,500' AGL
Temperature
22°C / 72°F
Dewpoint
19°C / 66°F
Humidity
83%
Altimeter
29.74" Hg
Pressure
1007.12 hPa
Previous

2 hours ago

KSGT 200556Z AUTO 00000KT 10SM BKN110 22/19 A2973 RMK AO2 PRESFR SLP066 60016 T02170189 10317 20211 403390211 50007
Observed
Jun-20 @ 05:56 UTC
Visibility
10 SM
Flight Rules
VFR
Cloud Levels
  • Broken at 11,000' AGL
Temperature
22°C / 72°F
Dewpoint
19°C / 66°F
Humidity
83%
Altimeter
29.73" Hg
Pressure
1006.82 hPa
Previous

3 hours ago

KSGT 200456Z AUTO 22007KT 10SM CLR 22/19 A2973 RMK AO2 WSHFT 0355 TSE0358B00E16RAE22 SLP066 P0003 T02170189
Observed
Jun-20 @ 04:56 UTC
Wind
  • 220° at 7 KTS
Visibility
10 SM
Flight Rules
VFR
Cloud Levels
  • Clear skies
Temperature
22°C / 72°F
Dewpoint
19°C / 66°F
Humidity
83%
Altimeter
29.73" Hg
Pressure
1006.82 hPa
Current Rain
0.03"